Time;durP1;ratioP1;P1;durP2;ratioP2;P2;SDS_P1;SDS_P2;PMS_P1;PMS_P2;Temp;Humidity;BMP_temperature;BMP_pressure;BME280_temperature;BME280_humidity;BME280_pressure;Samples;Min_cycle;Max_cycle;Signal;HPM_P1;HPM_P2
2022/05/10 00:01:00;;;;;;;;;;;14.20;99.90;;;;;;4065949;28;10000514;-72
2022/05/10 00:03:31;;;;;;;;;;;14.30;99.90;;;;;;4954330;28;19932;-72
2022/05/10 00:05:56;;;;;;;;;;;14.30;99.90;;;;;;4954492;28;19925;-72
2022/05/10 00:08:22;;;;;;;;;;;14.20;99.90;;;;;;4970576;28;19925;-72
2022/05/10 00:10:48;;;;;;;;;;;14.20;99.90;;;;;;4970403;28;20062;-72
2022/05/10 00:13:14;;;;;;;;;;;14.10;99.90;;;;;;4975059;28;20991;-72
2022/05/10 00:15:41;;;;;;;;;;;14.10;99.90;;;;;;4951616;28;20386;-72
2022/05/10 00:18:08;;;;;;;;;;;14.00;99.90;;;;;;4949965;28;20710;-73
2022/05/10 00:20:41;;;;;;;;;;;13.80;99.90;;;;;;4965379;28;20677;-72
2022/05/10 00:23:07;;;;;;;;;;;13.90;99.90;;;;;;4966768;28;19925;-73
2022/05/10 00:25:32;;;;;;;;;;;14.00;99.90;;;;;;4968796;28;19925;-73
2022/05/10 00:27:58;;;;;;;;;;;13.80;99.90;;;;;;4970701;28;19925;-73
2022/05/10 00:30:24;;;;;;;;;;;13.80;99.90;;;;;;4978157;28;19936;-73
2022/05/10 00:32:50;;;;;;;;;;;13.90;99.90;;;;;;4977100;28;19921;-73
2022/05/10 00:35:17;;;;;;;;;;;14.00;99.90;;;;;;4969722;28;19936;-73
2022/05/10 00:37:44;;;;;;;;;;;14.10;99.90;;;;;;4968072;28;19948;-72
2022/05/10 00:40:10;;;;;;;;;;;14.10;99.90;;;;;;4944819;28;19925;-72
2022/05/10 00:42:55;;;;;;;;;;;14.10;99.90;;;;;;4969368;28;19925;-72
2022/05/10 00:45:33;;;;;;;;;;;13.90;99.90;;;;;;4974326;28;20120;-73
2022/05/10 00:48:09;;;;;;;;;;;13.90;99.90;;;;;;4970490;28;20786;-73
2022/05/10 00:50:40;;;;;;;;;;;13.80;99.90;;;;;;4966959;28;19956;-73
2022/05/10 00:53:09;;;;;;;;;;;13.90;99.90;;;;;;4968644;28;20647;-72
2022/05/10 00:55:54;;;;;;;;;;;14.00;99.90;;;;;;4963783;28;19925;-73
2022/05/10 00:58:23;;;;;;;;;;;13.90;99.90;;;;;;4970390;28;20318;-73
2022/05/10 01:00:49;;;;;;;;;;;13.70;99.90;;;;;;4968650;28;20665;-73
2022/05/10 01:03:24;;;;;;;;;;;13.70;99.90;;;;;;4969499;28;19925;-73
2022/05/10 01:06:09;;;;;;;;;;;13.70;99.90;;;;;;4968767;28;19936;-72
2022/05/10 01:08:45;;;;;;;;;;;13.70;99.90;;;;;;4965739;28;19926;-73
2022/05/10 01:11:16;;;;;;;;;;;13.80;99.90;;;;;;4966410;28;19933;-72
2022/05/10 01:14:00;;;;;;;;;;;13.70;99.90;;;;;;4972055;28;19932;-72
2022/05/10 01:16:26;;;;;;;;;;;13.70;99.90;;;;;;4972341;28;19932;-72
2022/05/10 01:18:52;;;;;;;;;;;13.80;99.90;;;;;;4971783;28;20350;-72
2022/05/10 01:21:30;;;;;;;;;;;13.90;99.90;;;;;;4965088;28;19933;-72
2022/05/10 01:24:13;;;;;;;;;;;13.90;99.90;;;;;;4969238;28;19925;-72
2022/05/10 01:26:57;;;;;;;;;;;13.90;99.90;;;;;;4969213;28;20363;-72
2022/05/10 01:29:32;;;;;;;;;;;14.00;99.90;;;;;;4978386;28;19936;-72
2022/05/10 01:34:46;;;;;;;;;;;14.20;99.90;;;;;;4976179;28;19925;-72
2022/05/10 01:37:14;;;;;;;;;;;14.20;99.90;;;;;;4976303;28;19929;-72
2022/05/10 01:39:42;;;;;;;;;;;14.20;99.90;;;;;;4969059;28;20348;-72
2022/05/10 01:42:13;;;;;;;;;;;14.30;99.90;;;;;;4979857;28;20375;-72
2022/05/10 01:44:46;;;;;;;;;;;14.40;99.90;;;;;;4975528;28;19931;-73
2022/05/10 01:47:21;;;;;;;;;;;14.30;99.90;;;;;;4976185;28;19929;-73
2022/05/10 01:49:50;;;;;;;;;;;14.30;99.90;;;;;;4975544;28;19929;-73
2022/05/10 01:52:22;;;;;;;;;;;14.30;99.90;;;;;;4977232;28;20679;-73
2022/05/10 01:55:06;;;;;;;;;;;14.30;99.90;;;;;;4982017;28;19940;-72
2022/05/10 01:57:33;;;;;;;;;;;14.40;99.90;;;;;;4980301;28;19925;-73
2022/05/10 02:00:09;;;;;;;;;;;14.40;99.90;;;;;;4966660;28;20394;-73
2022/05/10 02:02:36;;;;;;;;;;;14.50;99.90;;;;;;4983223;28;19931;-73
2022/05/10 02:05:05;;;;;;;;;;;14.50;99.90;;;;;;4979092;28;19933;-72
2022/05/10 02:07:30;;;;;;;;;;;14.60;99.90;;;;;;4974728;28;19991;-73
2022/05/10 02:10:00;;;;;;;;;;;14.60;99.90;;;;;;4975880;28;20377;-73
2022/05/10 02:12:52;;;;;;;;;;;14.60;99.90;;;;;;4972152;28;19925;-72
2022/05/10 02:15:33;;;;;;;;;;;14.60;99.90;;;;;;4951354;28;19929;-74
2022/05/10 02:18:09;;;;;;;;;;;14.60;99.90;;;;;;4978541;28;19925;-73
2022/05/10 02:20:34;;;;;;;;;;;14.70;99.90;;;;;;4957472;28;19944;-73
2022/05/10 02:23:12;;;;;;;;;;;14.70;99.90;;;;;;4976510;28;20390;-73
2022/05/10 02:25:39;;;;;;;;;;;14.70;99.90;;;;;;4945830;28;19958;-73
2022/05/10 02:28:10;;;;;;;;;;;14.70;99.90;;;;;;4975069;28;20550;-73
2022/05/10 02:30:36;;;;;;;;;;;14.70;99.90;;;;;;4975975;28;20647;-74
2022/05/10 02:33:10;;;;;;;;;;;14.60;99.90;;;;;;4976040;28;20016;-73
2022/05/10 02:35:48;;;;;;;;;;;14.70;99.90;;;;;;4962159;28;19926;-73
2022/05/10 02:38:15;;;;;;;;;;;14.70;99.90;;;;;;4978848;28;19936;-74
2022/05/10 02:40:41;;;;;;;;;;;14.60;99.90;;;;;;4974067;28;19979;-74
2022/05/10 02:43:18;;;;;;;;;;;14.50;99.90;;;;;;4958253;28;20417;-73
2022/05/10 02:45:44;;;;;;;;;;;14.60;99.90;;;;;;4968226;28;19936;-73
2022/05/10 02:48:20;;;;;;;;;;;14.60;99.90;;;;;;4968586;28;20494;-74
2022/05/10 02:50:45;;;;;;;;;;;14.40;99.90;;;;;;4967533;28;20317;-74
2022/05/10 02:53:11;;;;;;;;;;;14.40;99.90;;;;;;4972881;28;19957;-74
2022/05/10 02:55:47;;;;;;;;;;;14.30;99.90;;;;;;4969801;28;19929;-74
2022/05/10 02:58:16;;;;;;;;;;;14.20;99.90;;;;;;4970470;28;19935;-73
2022/05/10 03:00:42;;;;;;;;;;;14.30;99.90;;;;;;4952641;28;20814;-73
2022/05/10 03:03:09;;;;;;;;;;;14.40;99.90;;;;;;4972900;28;19930;-73
2022/05/10 03:05:35;;;;;;;;;;;14.40;99.90;;;;;;4954125;28;19925;-73
2022/05/10 03:08:01;;;;;;;;;;;14.40;99.90;;;;;;4971193;28;20446;-73
2022/05/10 03:10:26;;;;;;;;;;;14.50;99.90;;;;;;4970380;28;19928;-73
2022/05/10 03:12:52;;;;;;;;;;;14.30;99.90;;;;;;4972235;28;19957;-73
2022/05/10 03:15:17;;;;;;;;;;;14.40;99.90;;;;;;4969306;28;19930;-73
2022/05/10 03:17:43;;;;;;;;;;;14.40;99.90;;;;;;4968485;28;20500;-73
2022/05/10 03:20:09;;;;;;;;;;;14.40;99.90;;;;;;4967936;28;20039;-73
2022/05/10 03:22:34;;;;;;;;;;;14.30;99.90;;;;;;4972566;28;19956;-73
2022/05/10 03:25:00;;;;;;;;;;;14.30;99.90;;;;;;4970332;28;19925;-73
2022/05/10 03:27:26;;;;;;;;;;;14.20;99.90;;;;;;4969430;28;19925;-73
2022/05/10 03:29:51;;;;;;;;;;;14.20;99.90;;;;;;4974553;28;19925;-73
2022/05/10 03:32:17;;;;;;;;;;;14.20;99.90;;;;;;4969525;28;19925;-73
2022/05/10 03:34:55;;;;;;;;;;;14.20;99.90;;;;;;4970755;28;19961;-73
2022/05/10 03:37:21;;;;;;;;;;;14.20;99.90;;;;;;4971357;28;20535;-73
2022/05/10 03:39:46;;;;;;;;;;;14.30;99.90;;;;;;4974462;28;21029;-73
2022/05/10 03:42:12;;;;;;;;;;;14.20;99.90;;;;;;4972905;28;19930;-73
2022/05/10 03:44:38;;;;;;;;;;;14.20;99.90;;;;;;4973296;28;20418;-73
2022/05/10 03:47:05;;;;;;;;;;;14.10;99.90;;;;;;4977333;28;19929;-74
2022/05/10 03:49:30;;;;;;;;;;;14.10;99.90;;;;;;4980158;28;20018;-74
2022/05/10 03:51:56;;;;;;;;;;;14.00;99.90;;;;;;4979018;28;20012;-74
2022/05/10 03:54:22;;;;;;;;;;;14.00;99.90;;;;;;4970044;28;19932;-74
2022/05/10 03:56:48;;;;;;;;;;;14.10;99.90;;;;;;4975233;28;19932;-73
2022/05/10 03:59:14;;;;;;;;;;;14.00;99.90;;;;;;4972348;28;19965;-74
2022/05/10 04:01:39;;;;;;;;;;;14.00;99.90;;;;;;4973176;28;20029;-73
2022/05/10 04:04:05;;;;;;;;;;;14.10;99.90;;;;;;4969850;28;19925;-73
2022/05/10 04:06:31;;;;;;;;;;;14.10;99.90;;;;;;4967301;28;19991;-74
2022/05/10 04:08:56;;;;;;;;;;;14.10;99.90;;;;;;4970096;28;19951;-73
2022/05/10 04:11:22;;;;;;;;;;;14.20;99.90;;;;;;4968023;28;19933;-73
2022/05/10 04:13:48;;;;;;;;;;;14.30;99.90;;;;;;4968250;28;19962;-73
2022/05/10 04:16:13;;;;;;;;;;;14.40;99.90;;;;;;4960577;28;19933;-73
2022/05/10 04:18:39;;;;;;;;;;;14.40;99.90;;;;;;4966529;28;21859;-73
2022/05/10 04:21:05;;;;;;;;;;;14.40;99.90;;;;;;4968396;28;19988;-73
2022/05/10 04:23:31;;;;;;;;;;;14.40;99.90;;;;;;4967739;28;19929;-73
2022/05/10 04:26:03;;;;;;;;;;;14.40;99.90;;;;;;4969502;28;19989;-73
2022/05/10 04:28:30;;;;;;;;;;;14.40;99.90;;;;;;4967057;28;19925;-73
2022/05/10 04:30:56;;;;;;;;;;;14.30;99.90;;;;;;4971901;28;19983;-73
2022/05/10 04:33:21;;;;;;;;;;;14.40;99.90;;;;;;4982961;28;20350;-74
2022/05/10 04:35:47;;;;;;;;;;;14.50;99.90;;;;;;4981340;28;19925;-73
2022/05/10 04:38:12;;;;;;;;;;;14.40;99.90;;;;;;4977913;28;20113;-74
2022/05/10 04:43:22;;;;;;;;;;;14.30;99.90;;;;;;4963511;28;19961;-74
2022/05/10 04:45:48;;;;;;;;;;;14.30;99.90;;;;;;4964187;28;20040;-74
2022/05/10 04:48:14;;;;;;;;;;;14.40;99.90;;;;;;4967412;28;19956;-74
2022/05/10 04:50:39;;;;;;;;;;;14.50;99.90;;;;;;4966743;28;19930;-74
2022/05/10 04:53:05;;;;;;;;;;;14.60;99.90;;;;;;4944076;28;20310;-74
2022/05/10 04:55:30;;;;;;;;;;;14.60;99.90;;;;;;4943597;28;19922;-74
2022/05/10 04:57:56;;;;;;;;;;;14.60;99.90;;;;;;4963097;28;19925;-74
2022/05/10 05:00:23;;;;;;;;;;;14.70;99.90;;;;;;4959973;28;19932;-73
2022/05/10 05:02:48;;;;;;;;;;;14.80;99.90;;;;;;4965187;28;20382;-73
2022/05/10 05:05:14;;;;;;;;;;;14.80;99.90;;;;;;4969072;28;19936;-74
2022/05/10 05:07:40;;;;;;;;;;;14.90;99.90;;;;;;4968912;28;19929;-74
2022/05/10 05:10:07;;;;;;;;;;;14.90;99.90;;;;;;4966724;28;19931;-74
2022/05/10 05:12:33;;;;;;;;;;;15.00;99.90;;;;;;4964519;28;20159;-74
2022/05/10 05:15:03;;;;;;;;;;;15.00;99.90;;;;;;4980899;28;19925;-74
2022/05/10 05:17:29;;;;;;;;;;;15.10;99.90;;;;;;4968180;28;20016;-74
2022/05/10 05:19:54;;;;;;;;;;;15.20;99.90;;;;;;4964062;28;20323;-74
2022/05/10 05:22:20;;;;;;;;;;;15.30;99.90;;;;;;4986444;28;19925;-74
2022/05/10 05:24:45;;;;;;;;;;;15.40;99.90;;;;;;4986097;28;19936;-74
2022/05/10 05:27:11;;;;;;;;;;;15.50;99.90;;;;;;4981088;28;19925;-74
2022/05/10 05:29:37;;;;;;;;;;;15.50;99.90;;;;;;4982778;28;19932;-74
2022/05/10 05:32:06;;;;;;;;;;;15.60;99.90;;;;;;4982065;28;20729;-74
2022/05/10 05:34:31;;;;;;;;;;;15.70;99.90;;;;;;4985961;28;20762;-74
2022/05/10 05:39:41;;;;;;;;;;;15.80;99.90;;;;;;4986950;28;20446;-74
2022/05/10 05:42:07;;;;;;;;;;;15.90;99.90;;;;;;4967561;28;19955;-74
2022/05/10 05:44:32;;;;;;;;;;;16.00;99.90;;;;;;4984857;28;20691;-74
2022/05/10 05:46:58;;;;;;;;;;;16.00;99.90;;;;;;4983030;28;19976;-74
2022/05/10 05:49:26;;;;;;;;;;;16.20;99.90;;;;;;4974997;28;19983;-74
2022/05/10 05:51:56;;;;;;;;;;;16.20;99.90;;;;;;4964930;28;19925;-74
2022/05/10 05:54:21;;;;;;;;;;;16.30;99.90;;;;;;4975832;28;19964;-74
2022/05/10 05:56:47;;;;;;;;;;;16.40;99.90;;;;;;4976683;28;20035;-74
2022/05/10 05:59:12;;;;;;;;;;;16.50;99.90;;;;;;4977341;28;20497;-74
2022/05/10 06:01:38;;;;;;;;;;;16.60;99.90;;;;;;4974848;28;20366;-74
2022/05/10 06:04:04;;;;;;;;;;;16.60;99.90;;;;;;4973284;28;19929;-74
2022/05/10 06:06:29;;;;;;;;;;;16.70;99.90;;;;;;4977531;28;20542;-74
2022/05/10 06:08:55;;;;;;;;;;;16.70;99.90;;;;;;4978990;28;19925;-75
2022/05/10 06:11:21;;;;;;;;;;;16.80;99.90;;;;;;4976476;28;20375;-75
2022/05/10 06:13:46;;;;;;;;;;;16.80;99.90;;;;;;4964498;28;19925;-74
2022/05/10 06:16:12;;;;;;;;;;;16.90;99.90;;;;;;4978062;28;19929;-74
2022/05/10 06:18:38;;;;;;;;;;;16.90;99.90;;;;;;4979723;28;19980;-74
2022/05/10 06:21:03;;;;;;;;;;;17.00;99.90;;;;;;4984741;28;19929;-74
2022/05/10 06:23:29;;;;;;;;;;;17.10;99.90;;;;;;4980821;28;19929;-75
2022/05/10 06:25:54;;;;;;;;;;;17.10;99.90;;;;;;4980238;28;20385;-75
2022/05/10 06:28:20;;;;;;;;;;;17.10;99.90;;;;;;4964423;28;20897;-75
2022/05/10 06:30:47;;;;;;;;;;;17.30;99.90;;;;;;4982203;28;19932;-74
2022/05/10 06:33:13;;;;;;;;;;;17.40;99.90;;;;;;4977249;28;19925;-74
2022/05/10 06:35:39;;;;;;;;;;;17.50;99.90;;;;;;4980202;28;19932;-74
2022/05/10 06:38:19;;;;;;;;;;;17.70;99.90;;;;;;4974655;28;19956;-75
2022/05/10 06:40:45;;;;;;;;;;;17.80;99.90;;;;;;4961936;28;20358;-74
2022/05/10 06:43:11;;;;;;;;;;;18.10;99.90;;;;;;4984640;28;20678;-74
2022/05/10 06:45:37;;;;;;;;;;;18.30;99.90;;;;;;4966437;28;19991;-74
2022/05/10 06:48:03;;;;;;;;;;;18.60;99.90;;;;;;4984427;28;20015;-75
2022/05/10 06:50:30;;;;;;;;;;;18.80;99.90;;;;;;4986636;28;19968;-75
2022/05/10 06:52:59;;;;;;;;;;;19.10;99.90;;;;;;4990757;28;20567;-74
2022/05/10 06:55:26;;;;;;;;;;;19.20;99.90;;;;;;4990512;28;20158;-74
2022/05/10 06:57:52;;;;;;;;;;;19.40;99.90;;;;;;4975721;28;19925;-74
2022/05/10 07:00:18;;;;;;;;;;;19.50;99.90;;;;;;4978442;28;20323;-74
2022/05/10 07:02:44;;;;;;;;;;;19.60;99.90;;;;;;4987196;28;20023;-75
2022/05/10 07:05:11;;;;;;;;;;;19.70;99.90;;;;;;4985072;28;19924;-75
2022/05/10 07:07:36;;;;;;;;;;;19.70;99.90;;;;;;4986228;28;19936;-75
2022/05/10 07:10:04;;;;;;;;;;;19.80;99.90;;;;;;4985638;28;19925;-75
2022/05/10 07:12:29;;;;;;;;;;;19.70;99.90;;;;;;4950776;28;19929;-75
2022/05/10 07:14:55;;;;;;;;;;;19.70;99.90;;;;;;4983987;28;19983;-75
2022/05/10 07:17:21;;;;;;;;;;;19.70;99.90;;;;;;4985051;28;19933;-73
2022/05/10 07:19:46;;;;;;;;;;;19.70;99.90;;;;;;4983126;28;20303;-75
2022/05/10 07:22:12;;;;;;;;;;;19.60;99.90;;;;;;4985803;28;19929;-75
2022/05/10 07:24:38;;;;;;;;;;;19.70;99.90;;;;;;4990541;28;20000;-75
2022/05/10 07:27:04;;;;;;;;;;;19.90;99.90;;;;;;4985380;28;20413;-76
2022/05/10 07:29:30;;;;;;;;;;;20.10;99.90;;;;;;4982203;28;19930;-75
2022/05/10 07:31:56;;;;;;;;;;;20.20;99.90;;;;;;4990453;28;19932;-75
2022/05/10 07:34:22;;;;;;;;;;;20.20;99.90;;;;;;4990624;28;19925;-75
2022/05/10 07:36:48;;;;;;;;;;;20.30;99.90;;;;;;4991201;28;20301;-75
2022/05/10 07:39:18;;;;;;;;;;;20.20;99.90;;;;;;4988146;28;19965;-75
2022/05/10 07:41:43;;;;;;;;;;;20.30;99.90;;;;;;4970079;28;19925;-75
2022/05/10 07:44:10;;;;;;;;;;;20.70;99.90;;;;;;4969026;28;19932;-75
2022/05/10 07:46:37;;;;;;;;;;;21.10;99.90;;;;;;4972109;28;19957;-74
2022/05/10 07:49:02;;;;;;;;;;;21.30;99.90;;;;;;4988804;28;19925;-75
2022/05/10 07:51:28;;;;;;;;;;;21.60;99.90;;;;;;4972223;28;19932;-75
2022/05/10 07:53:54;;;;;;;;;;;21.70;99.90;;;;;;4985745;28;19936;-75
2022/05/10 07:56:19;;;;;;;;;;;21.80;99.90;;;;;;4986173;28;19929;-75
2022/05/10 07:58:45;;;;;;;;;;;22.20;99.90;;;;;;4971351;28;20618;-76
2022/05/10 08:01:20;;;;;;;;;;;22.10;99.90;;;;;;4968216;28;20721;-76
2022/05/10 08:03:46;;;;;;;;;;;22.10;99.90;;;;;;4965117;28;19925;-75
2022/05/10 08:06:12;;;;;;;;;;;22.10;99.90;;;;;;4971489;28;19936;-76
2022/05/10 08:08:37;;;;;;;;;;;22.00;99.90;;;;;;4977405;28;20370;-75
2022/05/10 08:11:03;;;;;;;;;;;22.10;99.90;;;;;;4955793;28;19925;-76
2022/05/10 08:13:31;;;;;;;;;;;22.10;99.90;;;;;;4967501;28;20016;-75
2022/05/10 08:15:57;;;;;;;;;;;22.20;99.90;;;;;;4981872;28;19925;-75
2022/05/10 08:18:24;;;;;;;;;;;22.20;99.90;;;;;;4983668;28;19976;-76
2022/05/10 08:20:50;;;;;;;;;;;22.30;99.90;;;;;;4950701;28;19924;-76
2022/05/10 08:23:23;;;;;;;;;;;22.40;99.90;;;;;;4942075;28;20050;-76
2022/05/10 08:25:50;;;;;;;;;;;22.70;99.90;;;;;;4960109;28;19924;-75
2022/05/10 08:28:16;;;;;;;;;;;22.70;96.20;;;;;;4933140;28;19936;-76
2022/05/10 08:30:44;;;;;;;;;;;22.60;97.00;;;;;;4941946;28;19925;-75
2022/05/10 08:33:10;;;;;;;;;;;22.60;96.60;;;;;;4972953;28;19932;-76
2022/05/10 08:35:39;;;;;;;;;;;22.60;99.00;;;;;;4962835;28;19932;-75
2022/05/10 08:38:06;;;;;;;;;;;22.50;97.60;;;;;;4963569;28;20141;-75
2022/05/10 08:40:37;;;;;;;;;;;22.60;94.70;;;;;;4981834;28;20022;-76
2022/05/10 08:43:07;;;;;;;;;;;22.70;97.90;;;;;;4968838;28;19933;-76
2022/05/10 08:45:35;;;;;;;;;;;22.70;97.40;;;;;;4986558;28;19929;-76
2022/05/10 08:48:01;;;;;;;;;;;22.70;93.10;;;;;;4980724;28;19973;-75
2022/05/10 08:50:26;;;;;;;;;;;22.90;96.00;;;;;;4981327;28;20095;-74
2022/05/10 08:52:52;;;;;;;;;;;22.90;93.20;;;;;;4960942;28;19925;-75
2022/05/10 08:55:24;;;;;;;;;;;22.70;94.90;;;;;;4987204;28;19925;-76
2022/05/10 08:57:49;;;;;;;;;;;22.70;94.40;;;;;;4991890;28;19926;-76
2022/05/10 09:00:34;;;;;;;;;;;22.60;94.00;;;;;;4987438;28;19948;-75
2022/05/10 09:03:01;;;;;;;;;;;22.70;94.00;;;;;;4978729;28;19925;-75
2022/05/10 09:05:47;;;;;;;;;;;22.60;95.70;;;;;;4984185;28;19959;-75
2022/05/10 09:08:31;;;;;;;;;;;22.70;95.80;;;;;;4982850;28;19936;-75
2022/05/10 09:11:04;;;;;;;;;;;22.70;95.10;;;;;;4983462;28;19925;-75
2022/05/10 09:13:30;;;;;;;;;;;22.80;99.00;;;;;;4979735;28;19925;-75
2022/05/10 09:16:06;;;;;;;;;;;22.90;97.20;;;;;;4986032;28;19925;-73
2022/05/10 09:18:40;;;;;;;;;;;23.20;97.10;;;;;;4983233;28;19929;-76
2022/05/10 09:21:11;;;;;;;;;;;23.30;96.60;;;;;;4974480;28;19956;-76
2022/05/10 09:23:55;;;;;;;;;;;23.30;95.40;;;;;;4973500;28;19925;-75
2022/05/10 09:26:23;;;;;;;;;;;23.40;94.80;;;;;;4973241;28;20017;-77
2022/05/10 09:28:53;;;;;;;;;;;23.50;91.20;;;;;;4975807;28;20427;-77
2022/05/10 09:37:22;;;;;;;;;;;24.20;92.40;;;;;;4975630;28;19925;-77
2022/05/10 09:40:08;;;;;;;;;;;24.40;90.80;;;;;;4950486;28;19926;-76
2022/05/10 09:42:34;;;;;;;;;;;24.10;86.60;;;;;;4951949;28;20003;-75
2022/05/10 09:45:04;;;;;;;;;;;23.80;92.60;;;;;;4952819;28;20038;-77
2022/05/10 09:47:30;;;;;;;;;;;23.50;92.60;;;;;;4967960;28;19925;-77
2022/05/10 09:50:14;;;;;;;;;;;23.40;94.20;;;;;;4971031;28;19925;-77
2022/05/10 09:52:40;;;;;;;;;;;23.10;96.00;;;;;;4969690;28;19926;-76
2022/05/10 09:55:07;;;;;;;;;;;23.00;95.00;;;;;;4974320;28;20543;-75
2022/05/10 09:57:35;;;;;;;;;;;22.90;97.40;;;;;;4955279;28;19925;-76
2022/05/10 10:00:02;;;;;;;;;;;22.80;97.70;;;;;;4971703;28;19931;-75
2022/05/10 10:02:30;;;;;;;;;;;22.90;97.30;;;;;;4969796;28;20386;-76
2022/05/10 10:04:56;;;;;;;;;;;23.00;99.90;;;;;;4975884;28;19929;-73
2022/05/10 10:07:24;;;;;;;;;;;23.00;98.60;;;;;;4981956;28;23098;-75
2022/05/10 10:09:55;;;;;;;;;;;23.00;98.80;;;;;;4985581;28;19926;-76
2022/05/10 10:12:26;;;;;;;;;;;23.20;99.90;;;;;;4964285;28;20055;-76
2022/05/10 10:14:52;;;;;;;;;;;23.30;99.30;;;;;;4985828;28;19960;-75
2022/05/10 10:17:36;;;;;;;;;;;23.40;99.90;;;;;;4957425;28;20079;-77
2022/05/10 10:20:25;;;;;;;;;;;23.50;97.10;;;;;;4954700;28;19925;-76
2022/05/10 10:22:52;;;;;;;;;;;23.80;97.90;;;;;;4973529;28;19932;-77
2022/05/10 10:25:18;;;;;;;;;;;24.10;98.10;;;;;;4971555;28;20480;-75
2022/05/10 10:28:10;;;;;;;;;;;24.10;94.70;;;;;;4973871;28;19929;-77
2022/05/10 10:30:41;;;;;;;;;;;24.20;95.30;;;;;;4966520;28;19925;-75
2022/05/10 10:33:11;;;;;;;;;;;24.50;94.60;;;;;;4955474;28;19925;-75
2022/05/10 10:35:46;;;;;;;;;;;24.60;90.70;;;;;;4950794;28;20855;-75
2022/05/10 10:38:17;;;;;;;;;;;24.50;88.30;;;;;;4963793;28;20468;-76
2022/05/10 10:40:44;;;;;;;;;;;24.70;86.00;;;;;;4970060;28;20999;-77
2022/05/10 10:43:13;;;;;;;;;;;24.70;81.00;;;;;;4954680;28;19925;-75
2022/05/10 10:45:41;;;;;;;;;;;24.60;84.50;;;;;;4971243;28;19932;-76
2022/05/10 10:48:12;;;;;;;;;;;24.60;90.40;;;;;;4968806;28;19929;-77
2022/05/10 10:50:38;;;;;;;;;;;24.40;82.50;;;;;;4972365;28;19932;-77
2022/05/10 10:53:07;;;;;;;;;;;24.40;87.50;;;;;;4970825;28;19929;-76
2022/05/10 10:55:32;;;;;;;;;;;24.50;89.00;;;;;;4953142;28;19925;-76
2022/05/10 10:58:01;;;;;;;;;;;24.60;85.90;;;;;;4953840;28;20255;-77
2022/05/10 11:00:52;;;;;;;;;;;24.60;91.40;;;;;;4968546;28;19926;-76
2022/05/10 11:03:20;;;;;;;;;;;24.80;82.70;;;;;;4968229;28;19925;-78
2022/05/10 11:06:07;;;;;;;;;;;24.70;89.30;;;;;;4968886;28;20666;-77
2022/05/10 11:08:42;;;;;;;;;;;24.80;88.70;;;;;;4952345;28;20032;-77
2022/05/10 11:11:27;;;;;;;;;;;24.90;90.40;;;;;;4968210;28;20016;-77
2022/05/10 11:14:11;;;;;;;;;;;24.80;79.30;;;;;;4969876;28;20365;-76
2022/05/10 11:16:39;;;;;;;;;;;25.00;78.60;;;;;;4966180;28;20709;-78
2022/05/10 11:19:24;;;;;;;;;;;25.20;79.10;;;;;;4970229;28;20064;-79
2022/05/10 11:21:56;;;;;;;;;;;25.20;76.90;;;;;;4964461;28;19971;-77
2022/05/10 11:24:27;;;;;;;;;;;24.90;71.30;;;;;;4983440;28;19931;-76
2022/05/10 11:26:53;;;;;;;;;;;24.80;75.20;;;;;;4984473;28;20055;-76
2022/05/10 11:29:38;;;;;;;;;;;24.80;76.60;;;;;;4963943;28;19936;-78
2022/05/10 11:32:22;;;;;;;;;;;24.90;72.60;;;;;;4963712;28;20052;-76
2022/05/10 11:35:00;;;;;;;;;;;24.90;74.10;;;;;;4965250;28;19945;-77
2022/05/10 11:37:36;;;;;;;;;;;24.70;73.60;;;;;;4944851;28;20040;-74
2022/05/10 11:40:21;;;;;;;;;;;24.90;76.10;;;;;;4962306;28;19987;-76
2022/05/10 11:43:02;;;;;;;;;;;24.80;74.60;;;;;;4965166;28;19936;-76
2022/05/10 11:45:34;;;;;;;;;;;24.70;73.50;;;;;;4968862;28;19929;-77
2022/05/10 11:48:03;;;;;;;;;;;24.60;74.00;;;;;;4963782;28;20293;-76
2022/05/10 11:50:34;;;;;;;;;;;24.60;73.50;;;;;;4961500;28;19937;-75
2022/05/10 11:53:18;;;;;;;;;;;24.70;72.60;;;;;;4946112;28;19925;-79
2022/05/10 11:55:57;;;;;;;;;;;24.30;72.30;;;;;;4964997;28;19937;-76
2022/05/10 11:58:24;;;;;;;;;;;24.30;77.60;;;;;;4960504;28;19961;-78
2022/05/10 12:00:52;;;;;;;;;;;24.60;74.90;;;;;;4962125;28;20600;-76
2022/05/10 12:03:35;;;;;;;;;;;24.50;73.70;;;;;;4962525;28;20339;-77
2022/05/10 12:06:20;;;;;;;;;;;24.50;74.60;;;;;;4964214;28;20035;-76
2022/05/10 12:08:55;;;;;;;;;;;24.20;73.50;;;;;;4962774;28;19925;-77
2022/05/10 12:11:39;;;;;;;;;;;24.50;79.60;;;;;;4962843;28;19929;-78
2022/05/10 12:22:58;;;;;;;;;;;25.10;69.80;;;;;;4968130;28;19944;-76
2022/05/10 12:25:42;;;;;;;;;;;25.10;68.10;;;;;;4934145;28;19929;-79
2022/05/10 12:28:08;;;;;;;;;;;25.30;68.90;;;;;;4944498;28;19955;-76
2022/05/10 12:30:34;;;;;;;;;;;25.60;69.40;;;;;;4965855;28;19949;-76
2022/05/10 12:33:19;;;;;;;;;;;25.20;66.30;;;;;;4981848;28;19925;-78
2022/05/10 12:35:48;;;;;;;;;;;25.10;67.00;;;;;;4981889;28;19948;-76
2022/05/10 12:38:31;;;;;;;;;;;25.20;68.70;;;;;;4981808;28;19929;-75
2022/05/10 12:41:03;;;;;;;;;;;25.20;69.70;;;;;;4987932;28;20087;-76
2022/05/10 12:43:42;;;;;;;;;;;25.10;67.40;;;;;;4985908;28;19925;-76
2022/05/10 12:46:17;;;;;;;;;;;24.90;70.70;;;;;;4967196;28;19932;-75
2022/05/10 12:48:45;;;;;;;;;;;24.80;68.50;;;;;;4979336;28;19925;-77
2022/05/10 12:51:27;;;;;;;;;;;24.90;69.10;;;;;;4981939;28;19971;-76
2022/05/10 12:54:00;;;;;;;;;;;25.10;67.10;;;;;;4984950;28;19925;-75
2022/05/10 12:56:30;;;;;;;;;;;24.80;69.30;;;;;;4981733;28;19925;-76
2022/05/10 12:59:06;;;;;;;;;;;24.90;67.20;;;;;;4980882;28;20552;-76
2022/05/10 13:01:34;;;;;;;;;;;25.50;72.30;;;;;;4978774;28;19932;-78
2022/05/10 13:04:16;;;;;;;;;;;25.90;68.90;;;;;;4985059;28;20286;-78
2022/05/10 13:06:41;;;;;;;;;;;25.90;66.80;;;;;;4968024;28;19932;-75
2022/05/10 13:09:15;;;;;;;;;;;25.50;68.80;;;;;;4979764;28;19969;-76
2022/05/10 13:12:01;;;;;;;;;;;25.00;66.50;;;;;;4983519;28;19936;-77
2022/05/10 13:14:28;;;;;;;;;;;24.90;67.40;;;;;;4980238;28;20927;-77
2022/05/10 13:16:54;;;;;;;;;;;25.00;68.20;;;;;;4980040;28;19936;-77
2022/05/10 13:19:21;;;;;;;;;;;25.00;68.80;;;;;;4962232;28;19929;-76
2022/05/10 13:21:48;;;;;;;;;;;24.80;70.30;;;;;;4978790;28;19929;-77
2022/05/10 13:24:15;;;;;;;;;;;24.60;69.10;;;;;;4964285;28;20100;-77
2022/05/10 13:26:53;;;;;;;;;;;24.40;69.10;;;;;;4976916;28;20656;-78
2022/05/10 13:29:19;;;;;;;;;;;24.20;68.70;;;;;;4975485;28;20060;-76
2022/05/10 13:31:45;;;;;;;;;;;24.30;67.70;;;;;;4943344;28;20236;-78
2022/05/10 13:34:16;;;;;;;;;;;24.30;67.30;;;;;;4960455;28;19932;-75
2022/05/10 13:36:51;;;;;;;;;;;24.10;66.80;;;;;;4939099;28;20683;-75
2022/05/10 13:39:21;;;;;;;;;;;23.80;68.30;;;;;;4953740;28;19972;-77
2022/05/10 13:41:48;;;;;;;;;;;23.80;68.80;;;;;;4942095;28;19926;-77
2022/05/10 13:44:19;;;;;;;;;;;23.50;70.60;;;;;;4945864;28;19925;-76
2022/05/10 13:46:45;;;;;;;;;;;23.40;71.40;;;;;;4941711;28;19965;-74
2022/05/10 13:49:16;;;;;;;;;;;23.50;73.60;;;;;;4944922;28;20012;-75
2022/05/10 13:51:41;;;;;;;;;;;23.70;74.30;;;;;;4957121;28;19953;-75
2022/05/10 13:54:08;;;;;;;;;;;23.90;77.20;;;;;;4958638;28;19933;-75
2022/05/10 13:56:41;;;;;;;;;;;24.20;73.20;;;;;;4965653;28;19926;-75
2022/05/10 13:59:11;;;;;;;;;;;24.30;75.40;;;;;;4943263;28;20020;-76
2022/05/10 14:01:47;;;;;;;;;;;24.50;73.40;;;;;;4960824;28;19929;-75
2022/05/10 14:04:14;;;;;;;;;;;24.60;75.90;;;;;;4962029;28;19984;-75
2022/05/10 14:06:49;;;;;;;;;;;24.50;74.90;;;;;;4961377;28;19929;-76
2022/05/10 14:09:18;;;;;;;;;;;24.20;73.00;;;;;;4960963;28;19984;-76
2022/05/10 14:11:44;;;;;;;;;;;23.90;71.40;;;;;;4965934;28;20824;-75
2022/05/10 14:14:14;;;;;;;;;;;23.80;77.50;;;;;;4961500;28;19929;-76
2022/05/10 14:16:41;;;;;;;;;;;23.90;72.00;;;;;;4962447;28;20020;-77
2022/05/10 14:19:16;;;;;;;;;;;24.10;71.70;;;;;;4942098;28;19956;-75
2022/05/10 14:21:43;;;;;;;;;;;24.00;73.30;;;;;;4959897;28;20096;-74
2022/05/10 14:24:10;;;;;;;;;;;24.10;73.50;;;;;;4961359;28;21146;-74
2022/05/10 14:26:37;;;;;;;;;;;24.00;74.00;;;;;;4961004;28;19993;-75
2022/05/10 14:29:09;;;;;;;;;;;23.90;74.10;;;;;;4945109;28;19926;-75
2022/05/10 14:31:36;;;;;;;;;;;23.90;73.40;;;;;;4972308;28;19929;-75
2022/05/10 14:34:02;;;;;;;;;;;23.90;75.00;;;;;;4979037;28;19983;-76
2022/05/10 14:36:30;;;;;;;;;;;23.90;75.70;;;;;;4980667;28;19925;-74
2022/05/10 14:38:57;;;;;;;;;;;23.70;75.70;;;;;;4986541;28;19931;-75
2022/05/10 14:41:35;;;;;;;;;;;23.50;78.40;;;;;;4981324;28;19929;-76
2022/05/10 14:44:18;;;;;;;;;;;23.40;77.00;;;;;;4982545;28;19932;-75
2022/05/10 14:46:55;;;;;;;;;;;23.50;78.80;;;;;;4980361;28;19976;-75
2022/05/10 14:49:35;;;;;;;;;;;23.60;80.60;;;;;;4982607;28;19926;-75
2022/05/10 14:52:03;;;;;;;;;;;23.70;82.10;;;;;;4963990;28;20014;-75
2022/05/10 14:54:33;;;;;;;;;;;24.00;83.40;;;;;;4945961;28;19932;-76